sensor_id;sensor_type;location;lat;lon;timestamp;P1;durP1;ratioP1;P2;durP2;ratioP2
9906;SDS011;4992;51.628;6.664;2022-08-01T00:01:42;19.50;;;16.65;;
9906;SDS011;4992;51.628;6.664;2022-08-01T00:04:08;18.65;;;16.05;;
9906;SDS011;4992;51.628;6.664;2022-08-01T00:06:33;20.30;;;15.98;;
9906;SDS011;4992;51.628;6.664;2022-08-01T00:08:59;18.73;;;16.08;;
9906;SDS011;4992;51.628;6.664;2022-08-01T00:11:24;18.67;;;16.10;;
9906;SDS011;4992;51.628;6.664;2022-08-01T00:13:50;22.58;;;17.95;;
9906;SDS011;4992;51.628;6.664;2022-08-01T00:16:15;20.95;;;16.30;;
9906;SDS011;4992;51.628;6.664;2022-08-01T00:18:41;21.95;;;17.20;;
9906;SDS011;4992;51.628;6.664;2022-08-01T00:21:07;19.95;;;15.40;;
9906;SDS011;4992;51.628;6.664;2022-08-01T00:23:32;20.65;;;17.38;;
9906;SDS011;4992;51.628;6.664;2022-08-01T00:25:58;17.98;;;15.18;;
9906;SDS011;4992;51.628;6.664;2022-08-01T00:28:23;18.92;;;16.27;;
9906;SDS011;4992;51.628;6.664;2022-08-01T00:30:49;18.58;;;15.32;;
9906;SDS011;4992;51.628;6.664;2022-08-01T00:33:14;18.48;;;16.27;;
9906;SDS011;4992;51.628;6.664;2022-08-01T00:35:40;20.48;;;16.45;;
9906;SDS011;4992;51.628;6.664;2022-08-01T00:38:05;22.17;;;17.92;;
9906;SDS011;4992;51.628;6.664;2022-08-01T00:40:31;23.67;;;17.90;;
9906;SDS011;4992;51.628;6.664;2022-08-01T00:42:56;22.45;;;17.90;;
9906;SDS011;4992;51.628;6.664;2022-08-01T00:45:22;23.90;;;17.85;;
9906;SDS011;4992;51.628;6.664;2022-08-01T00:47:48;25.85;;;18.80;;
9906;SDS011;4992;51.628;6.664;2022-08-01T00:50:13;26.95;;;19.65;;
9906;SDS011;4992;51.628;6.664;2022-08-01T00:52:40;24.90;;;19.73;;
9906;SDS011;4992;51.628;6.664;2022-08-01T00:55:07;24.77;;;19.38;;
9906;SDS011;4992;51.628;6.664;2022-08-01T00:57:34;24.58;;;17.98;;
9906;SDS011;4992;51.628;6.664;2022-08-01T01:00:00;30.40;;;18.95;;
9906;SDS011;4992;51.628;6.664;2022-08-01T01:02:25;23.90;;;17.90;;
9906;SDS011;4992;51.628;6.664;2022-08-01T01:04:51;30.23;;;19.63;;
9906;SDS011;4992;51.628;6.664;2022-08-01T01:10:09;30.08;;;19.50;;
9906;SDS011;4992;51.628;6.664;2022-08-01T01:12:59;28.15;;;18.42;;
9906;SDS011;4992;51.628;6.664;2022-08-01T01:15:41;24.13;;;18.17;;
9906;SDS011;4992;51.628;6.664;2022-08-01T01:18:11;32.20;;;18.80;;
9906;SDS011;4992;51.628;6.664;2022-08-01T01:20:44;25.75;;;19.00;;
9906;SDS011;4992;51.628;6.664;2022-08-01T01:23:21;26.83;;;19.05;;
9906;SDS011;4992;51.628;6.664;2022-08-01T01:26:10;25.92;;;19.23;;
9906;SDS011;4992;51.628;6.664;2022-08-01T01:29:06;31.42;;;18.38;;
9906;SDS011;4992;51.628;6.664;2022-08-01T01:31:36;26.17;;;18.02;;
9906;SDS011;4992;51.628;6.664;2022-08-01T01:34:06;27.77;;;18.77;;
9906;SDS011;4992;51.628;6.664;2022-08-01T01:36:34;25.67;;;19.60;;
9906;SDS011;4992;51.628;6.664;2022-08-01T01:39:02;28.40;;;20.45;;
9906;SDS011;4992;51.628;6.664;2022-08-01T01:41:28;31.70;;;20.70;;
9906;SDS011;4992;51.628;6.664;2022-08-01T01:43:55;26.98;;;19.80;;
9906;SDS011;4992;51.628;6.664;2022-08-01T01:46:22;27.63;;;19.70;;
9906;SDS011;4992;51.628;6.664;2022-08-01T01:48:52;27.30;;;19.13;;
9906;SDS011;4992;51.628;6.664;2022-08-01T01:51:21;30.05;;;18.25;;
9906;SDS011;4992;51.628;6.664;2022-08-01T01:53:49;23.13;;;17.35;;
9906;SDS011;4992;51.628;6.664;2022-08-01T01:56:18;24.00;;;17.23;;
9906;SDS011;4992;51.628;6.664;2022-08-01T01:58:44;31.05;;;19.35;;
9906;SDS011;4992;51.628;6.664;2022-08-01T02:01:13;24.70;;;18.05;;
9906;SDS011;4992;51.628;6.664;2022-08-01T02:03:39;34.25;;;20.38;;
9906;SDS011;4992;51.628;6.664;2022-08-01T02:06:07;26.58;;;18.50;;
9906;SDS011;4992;51.628;6.664;2022-08-01T02:08:33;26.85;;;19.30;;
9906;SDS011;4992;51.628;6.664;2022-08-01T02:11:00;24.25;;;17.85;;
9906;SDS011;4992;51.628;6.664;2022-08-01T02:13:43;30.35;;;18.27;;
9906;SDS011;4992;51.628;6.664;2022-08-01T02:16:12;29.75;;;18.40;;
9906;SDS011;4992;51.628;6.664;2022-08-01T02:18:38;27.35;;;18.50;;
9906;SDS011;4992;51.628;6.664;2022-08-01T02:21:05;25.42;;;18.98;;
9906;SDS011;4992;51.628;6.664;2022-08-01T02:23:36;22.05;;;17.45;;
9906;SDS011;4992;51.628;6.664;2022-08-01T02:26:06;23.30;;;17.42;;
9906;SDS011;4992;51.628;6.664;2022-08-01T02:28:36;28.45;;;17.77;;
9906;SDS011;4992;51.628;6.664;2022-08-01T02:31:10;25.88;;;17.95;;
9906;SDS011;4992;51.628;6.664;2022-08-01T02:33:40;27.23;;;16.73;;
9906;SDS011;4992;51.628;6.664;2022-08-01T02:36:09;20.15;;;16.30;;
9906;SDS011;4992;51.628;6.664;2022-08-01T02:38:37;24.08;;;17.40;;
9906;SDS011;4992;51.628;6.664;2022-08-01T02:41:11;24.85;;;16.50;;
9906;SDS011;4992;51.628;6.664;2022-08-01T02:43:42;25.33;;;16.38;;
9906;SDS011;4992;51.628;6.664;2022-08-01T02:46:20;22.58;;;15.93;;
9906;SDS011;4992;51.628;6.664;2022-08-01T02:48:50;23.08;;;15.60;;
9906;SDS011;4992;51.628;6.664;2022-08-01T02:51:18;23.83;;;16.80;;
9906;SDS011;4992;51.628;6.664;2022-08-01T02:53:46;23.08;;;15.27;;
9906;SDS011;4992;51.628;6.664;2022-08-01T02:56:13;19.83;;;14.60;;
9906;SDS011;4992;51.628;6.664;2022-08-01T02:58:40;20.98;;;15.73;;
9906;SDS011;4992;51.628;6.664;2022-08-01T03:01:06;21.58;;;14.40;;
9906;SDS011;4992;51.628;6.664;2022-08-01T03:03:33;18.40;;;14.50;;
9906;SDS011;4992;51.628;6.664;2022-08-01T03:05:59;21.75;;;14.55;;
9906;SDS011;4992;51.628;6.664;2022-08-01T03:08:27;19.48;;;13.88;;
9906;SDS011;4992;51.628;6.664;2022-08-01T03:10:54;18.77;;;13.57;;
9906;SDS011;4992;51.628;6.664;2022-08-01T03:13:21;19.50;;;14.10;;
9906;SDS011;4992;51.628;6.664;2022-08-01T03:15:47;20.27;;;14.70;;
9906;SDS011;4992;51.628;6.664;2022-08-01T03:18:14;22.08;;;13.55;;
9906;SDS011;4992;51.628;6.664;2022-08-01T03:20:41;22.15;;;14.32;;
9906;SDS011;4992;51.628;6.664;2022-08-01T03:23:08;22.25;;;14.85;;
9906;SDS011;4992;51.628;6.664;2022-08-01T03:25:38;20.58;;;14.80;;
9906;SDS011;4992;51.628;6.664;2022-08-01T03:28:06;19.80;;;13.77;;
9906;SDS011;4992;51.628;6.664;2022-08-01T03:30:33;24.65;;;14.65;;
9906;SDS011;4992;51.628;6.664;2022-08-01T03:33:01;19.80;;;13.40;;
9906;SDS011;4992;51.628;6.664;2022-08-01T03:35:30;16.23;;;12.95;;
9906;SDS011;4992;51.628;6.664;2022-08-01T03:38:01;20.65;;;13.88;;
9906;SDS011;4992;51.628;6.664;2022-08-01T03:40:31;17.45;;;13.07;;
9906;SDS011;4992;51.628;6.664;2022-08-01T03:43:11;18.27;;;13.88;;
9906;SDS011;4992;51.628;6.664;2022-08-01T03:45:45;17.92;;;13.27;;
9906;SDS011;4992;51.628;6.664;2022-08-01T03:48:17;17.80;;;13.63;;
9906;SDS011;4992;51.628;6.664;2022-08-01T03:50:45;20.38;;;15.57;;
9906;SDS011;4992;51.628;6.664;2022-08-01T03:53:13;23.00;;;14.45;;
9906;SDS011;4992;51.628;6.664;2022-08-01T03:55:41;21.92;;;14.35;;
9906;SDS011;4992;51.628;6.664;2022-08-01T03:58:08;23.65;;;15.07;;
9906;SDS011;4992;51.628;6.664;2022-08-01T04:00:36;20.92;;;14.57;;
9906;SDS011;4992;51.628;6.664;2022-08-01T04:03:08;20.67;;;14.90;;
9906;SDS011;4992;51.628;6.664;2022-08-01T04:05:34;22.67;;;15.30;;
9906;SDS011;4992;51.628;6.664;2022-08-01T04:08:00;24.23;;;15.32;;
9906;SDS011;4992;51.628;6.664;2022-08-01T04:10:27;20.02;;;14.85;;
9906;SDS011;4992;51.628;6.664;2022-08-01T04:12:53;20.50;;;14.80;;
9906;SDS011;4992;51.628;6.664;2022-08-01T04:15:19;17.65;;;13.63;;
9906;SDS011;4992;51.628;6.664;2022-08-01T04:17:45;24.20;;;15.40;;
9906;SDS011;4992;51.628;6.664;2022-08-01T04:20:11;28.10;;;15.75;;
9906;SDS011;4992;51.628;6.664;2022-08-01T04:22:37;25.15;;;16.13;;
9906;SDS011;4992;51.628;6.664;2022-08-01T04:25:04;28.00;;;16.13;;
9906;SDS011;4992;51.628;6.664;2022-08-01T04:27:37;31.23;;;16.73;;
9906;SDS011;4992;51.628;6.664;2022-08-01T04:30:07;27.35;;;16.20;;
9906;SDS011;4992;51.628;6.664;2022-08-01T04:32:34;31.85;;;16.30;;
9906;SDS011;4992;51.628;6.664;2022-08-01T04:35:02;28.52;;;16.52;;
9906;SDS011;4992;51.628;6.664;2022-08-01T04:37:32;26.42;;;16.23;;
9906;SDS011;4992;51.628;6.664;2022-08-01T04:40:02;28.33;;;16.27;;
9906;SDS011;4992;51.628;6.664;2022-08-01T04:42:30;24.27;;;15.32;;
9906;SDS011;4992;51.628;6.664;2022-08-01T04:44:56;26.33;;;16.42;;
9906;SDS011;4992;51.628;6.664;2022-08-01T04:47:22;26.00;;;15.65;;
9906;SDS011;4992;51.628;6.664;2022-08-01T04:49:49;25.20;;;15.32;;
9906;SDS011;4992;51.628;6.664;2022-08-01T04:52:15;26.73;;;14.93;;
9906;SDS011;4992;51.628;6.664;2022-08-01T04:54:42;24.67;;;14.77;;
9906;SDS011;4992;51.628;6.664;2022-08-01T04:57:08;29.65;;;16.27;;
9906;SDS011;4992;51.628;6.664;2022-08-01T04:59:34;27.05;;;16.15;;
9906;SDS011;4992;51.628;6.664;2022-08-01T05:02:09;23.50;;;15.85;;
9906;SDS011;4992;51.628;6.664;2022-08-01T05:04:36;25.90;;;14.65;;
9906;SDS011;4992;51.628;6.664;2022-08-01T05:07:02;22.02;;;14.13;;
9906;SDS011;4992;51.628;6.664;2022-08-01T05:09:28;21.38;;;14.48;;
9906;SDS011;4992;51.628;6.664;2022-08-01T05:11:53;20.60;;;13.82;;
9906;SDS011;4992;51.628;6.664;2022-08-01T05:14:19;22.00;;;15.13;;
9906;SDS011;4992;51.628;6.664;2022-08-01T05:16:45;22.70;;;14.65;;
9906;SDS011;4992;51.628;6.664;2022-08-01T05:19:11;19.00;;;13.63;;
9906;SDS011;4992;51.628;6.664;2022-08-01T05:21:37;19.52;;;13.52;;
9906;SDS011;4992;51.628;6.664;2022-08-01T05:24:03;19.67;;;13.23;;
9906;SDS011;4992;51.628;6.664;2022-08-01T05:26:29;19.65;;;12.65;;
9906;SDS011;4992;51.628;6.664;2022-08-01T05:28:55;20.52;;;14.23;;
9906;SDS011;4992;51.628;6.664;2022-08-01T05:31:20;18.50;;;13.65;;
9906;SDS011;4992;51.628;6.664;2022-08-01T05:33:46;18.70;;;12.02;;
9906;SDS011;4992;51.628;6.664;2022-08-01T05:36:11;17.45;;;12.00;;
9906;SDS011;4992;51.628;6.664;2022-08-01T05:38:37;17.08;;;12.23;;
9906;SDS011;4992;51.628;6.664;2022-08-01T05:41:02;19.67;;;12.10;;
9906;SDS011;4992;51.628;6.664;2022-08-01T05:43:28;14.90;;;10.95;;
9906;SDS011;4992;51.628;6.664;2022-08-01T05:45:53;19.45;;;11.90;;
9906;SDS011;4992;51.628;6.664;2022-08-01T05:48:19;19.17;;;11.77;;
9906;SDS011;4992;51.628;6.664;2022-08-01T05:50:44;17.63;;;11.20;;
9906;SDS011;4992;51.628;6.664;2022-08-01T05:53:10;16.80;;;12.35;;
9906;SDS011;4992;51.628;6.664;2022-08-01T05:55:36;16.85;;;10.95;;
9906;SDS011;4992;51.628;6.664;2022-08-01T05:58:02;14.05;;;10.02;;
9906;SDS011;4992;51.628;6.664;2022-08-01T06:00:28;12.07;;;8.70;;
9906;SDS011;4992;51.628;6.664;2022-08-01T06:02:53;12.38;;;8.48;;
9906;SDS011;4992;51.628;6.664;2022-08-01T06:05:19;10.75;;;8.15;;
9906;SDS011;4992;51.628;6.664;2022-08-01T06:07:44;10.93;;;8.15;;
9906;SDS011;4992;51.628;6.664;2022-08-01T06:10:10;10.55;;;7.10;;
9906;SDS011;4992;51.628;6.664;2022-08-01T06:12:36;10.43;;;6.88;;
9906;SDS011;4992;51.628;6.664;2022-08-01T06:15:03;9.65;;;7.95;;
9906;SDS011;4992;51.628;6.664;2022-08-01T06:17:29;9.45;;;7.25;;
9906;SDS011;4992;51.628;6.664;2022-08-01T06:19:55;8.40;;;6.88;;
9906;SDS011;4992;51.628;6.664;2022-08-01T06:22:20;7.70;;;6.57;;
9906;SDS011;4992;51.628;6.664;2022-08-01T06:24:46;7.60;;;6.13;;
9906;SDS011;4992;51.628;6.664;2022-08-01T06:27:11;7.47;;;6.07;;
9906;SDS011;4992;51.628;6.664;2022-08-01T06:29:37;8.50;;;6.13;;
9906;SDS011;4992;51.628;6.664;2022-08-01T06:32:02;6.70;;;6.00;;
9906;SDS011;4992;51.628;6.664;2022-08-01T06:34:28;6.00;;;5.15;;
9906;SDS011;4992;51.628;6.664;2022-08-01T06:36:54;6.03;;;4.53;;
9906;SDS011;4992;51.628;6.664;2022-08-01T06:39:19;4.65;;;3.85;;
9906;SDS011;4992;51.628;6.664;2022-08-01T06:41:45;4.05;;;3.15;;
9906;SDS011;4992;51.628;6.664;2022-08-01T06:44:13;6.28;;;3.88;;
9906;SDS011;4992;51.628;6.664;2022-08-01T06:46:39;4.20;;;3.80;;
9906;SDS011;4992;51.628;6.664;2022-08-01T06:49:04;4.53;;;3.40;;
9906;SDS011;4992;51.628;6.664;2022-08-01T06:51:30;4.10;;;3.80;;
9906;SDS011;4992;51.628;6.664;2022-08-01T06:53:55;4.20;;;3.80;;
9906;SDS011;4992;51.628;6.664;2022-08-01T06:56:21;5.07;;;4.50;;
9906;SDS011;4992;51.628;6.664;2022-08-01T06:58:46;6.30;;;3.78;;
9906;SDS011;4992;51.628;6.664;2022-08-01T07:01:13;4.82;;;3.65;;
9906;SDS011;4992;51.628;6.664;2022-08-01T07:03:39;4.93;;;3.78;;
9906;SDS011;4992;51.628;6.664;2022-08-01T07:06:04;3.75;;;3.38;;
9906;SDS011;4992;51.628;6.664;2022-08-01T07:08:30;2.85;;;2.58;;
9906;SDS011;4992;51.628;6.664;2022-08-01T07:10:55;2.95;;;2.55;;
9906;SDS011;4992;51.628;6.664;2022-08-01T07:13:24;2.65;;;2.45;;
9906;SDS011;4992;51.628;6.664;2022-08-01T07:15:53;4.10;;;3.10;;
9906;SDS011;4992;51.628;6.664;2022-08-01T07:18:18;4.03;;;3.03;;
9906;SDS011;4992;51.628;6.664;2022-08-01T07:20:44;3.05;;;2.85;;
9906;SDS011;4992;51.628;6.664;2022-08-01T07:23:11;2.88;;;2.65;;
9906;SDS011;4992;51.628;6.664;2022-08-01T07:25:37;3.33;;;3.00;;
9906;SDS011;4992;51.628;6.664;2022-08-01T07:28:03;3.47;;;3.17;;
9906;SDS011;4992;51.628;6.664;2022-08-01T07:30:28;3.75;;;3.45;;
9906;SDS011;4992;51.628;6.664;2022-08-01T07:32:54;4.28;;;3.13;;
9906;SDS011;4992;51.628;6.664;2022-08-01T07:35:20;5.15;;;4.65;;
9906;SDS011;4992;51.628;6.664;2022-08-01T07:37:45;3.58;;;3.28;;
9906;SDS011;4992;51.628;6.664;2022-08-01T07:40:11;3.42;;;3.15;;
9906;SDS011;4992;51.628;6.664;2022-08-01T07:42:36;3.05;;;2.75;;
9906;SDS011;4992;51.628;6.664;2022-08-01T07:45:02;4.57;;;2.60;;
9906;SDS011;4992;51.628;6.664;2022-08-01T07:47:28;2.60;;;2.40;;
9906;SDS011;4992;51.628;6.664;2022-08-01T07:49:58;2.47;;;2.28;;
9906;SDS011;4992;51.628;6.664;2022-08-01T07:52:24;2.50;;;2.30;;
9906;SDS011;4992;51.628;6.664;2022-08-01T07:54:51;3.63;;;1.83;;
9906;SDS011;4992;51.628;6.664;2022-08-01T07:57:17;5.20;;;2.97;;
9906;SDS011;4992;51.628;6.664;2022-08-01T07:59:42;2.95;;;2.58;;
9906;SDS011;4992;51.628;6.664;2022-08-01T08:02:08;4.15;;;2.45;;
9906;SDS011;4992;51.628;6.664;2022-08-01T08:04:33;3.17;;;2.45;;
9906;SDS011;4992;51.628;6.664;2022-08-01T08:06:59;2.90;;;2.15;;
9906;SDS011;4992;51.628;6.664;2022-08-01T08:09:24;2.92;;;1.70;;
9906;SDS011;4992;51.628;6.664;2022-08-01T08:11:50;1.98;;;1.77;;
9906;SDS011;4992;51.628;6.664;2022-08-01T08:14:16;1.75;;;1.65;;
9906;SDS011;4992;51.628;6.664;2022-08-01T08:16:42;2.47;;;1.50;;
9906;SDS011;4992;51.628;6.664;2022-08-01T08:19:08;2.30;;;1.90;;
9906;SDS011;4992;51.628;6.664;2022-08-01T08:21:34;2.00;;;1.80;;
9906;SDS011;4992;51.628;6.664;2022-08-01T08:24:01;2.40;;;1.85;;
9906;SDS011;4992;51.628;6.664;2022-08-01T08:26:48;2.03;;;1.50;;
9906;SDS011;4992;51.628;6.664;2022-08-01T08:29:15;1.20;;;1.10;;
9906;SDS011;4992;51.628;6.664;2022-08-01T08:31:42;1.42;;;1.33;;
9906;SDS011;4992;51.628;6.664;2022-08-01T08:34:07;1.17;;;1.08;;
9906;SDS011;4992;51.628;6.664;2022-08-01T08:36:33;2.90;;;1.50;;
9906;SDS011;4992;51.628;6.664;2022-08-01T08:38:59;1.42;;;1.13;;
9906;SDS011;4992;51.628;6.664;2022-08-01T08:41:25;1.23;;;1.13;;
9906;SDS011;4992;51.628;6.664;2022-08-01T08:43:51;1.52;;;1.42;;
9906;SDS011;4992;51.628;6.664;2022-08-01T08:46:18;1.08;;;1.00;;
9906;SDS011;4992;51.628;6.664;2022-08-01T08:48:44;1.20;;;0.90;;
9906;SDS011;4992;51.628;6.664;2022-08-01T08:51:10;1.17;;;1.05;;
9906;SDS011;4992;51.628;6.664;2022-08-01T08:53:38;0.70;;;0.55;;
9906;SDS011;4992;51.628;6.664;2022-08-01T08:56:08;2.15;;;0.40;;
9906;SDS011;4992;51.628;6.664;2022-08-01T08:58:38;1.38;;;0.40;;
9906;SDS011;4992;51.628;6.664;2022-08-01T09:01:05;0.43;;;0.43;;
9906;SDS011;4992;51.628;6.664;2022-08-01T09:03:32;1.20;;;0.30;;
9906;SDS011;4992;51.628;6.664;2022-08-01T09:05:58;0.52;;;0.40;;
9906;SDS011;4992;51.628;6.664;2022-08-01T09:08:23;0.50;;;0.50;;
9906;SDS011;4992;51.628;6.664;2022-08-01T09:10:49;0.30;;;0.30;;
9906;SDS011;4992;51.628;6.664;2022-08-01T09:13:14;0.40;;;0.40;;
9906;SDS011;4992;51.628;6.664;2022-08-01T09:15:47;0.50;;;0.43;;
9906;SDS011;4992;51.628;6.664;2022-08-01T09:18:31;0.50;;;0.50;;
9906;SDS011;4992;51.628;6.664;2022-08-01T09:21:12;0.50;;;0.50;;
9906;SDS011;4992;51.628;6.664;2022-08-01T09:23:50;0.10;;;0.10;;
9906;SDS011;4992;51.628;6.664;2022-08-01T09:26:18;0.85;;;0.20;;
9906;SDS011;4992;51.628;6.664;2022-08-01T09:28:46;0.08;;;0.00;;
9906;SDS011;4992;51.628;6.664;2022-08-01T09:31:16;0.10;;;0.10;;
9906;SDS011;4992;51.628;6.664;2022-08-01T09:33:50;0.00;;;0.00;;
9906;SDS011;4992;51.628;6.664;2022-08-01T09:36:19;0.10;;;0.10;;
9906;SDS011;4992;51.628;6.664;2022-08-01T09:38:46;0.03;;;0.03;;
9906;SDS011;4992;51.628;6.664;2022-08-01T09:41:12;0.10;;;0.10;;
9906;SDS011;4992;51.628;6.664;2022-08-01T09:43:38;1.65;;;0.10;;
9906;SDS011;4992;51.628;6.664;2022-08-01T09:46:05;1.00;;;0.10;;
9906;SDS011;4992;51.628;6.664;2022-08-01T09:48:38;0.17;;;0.10;;
9906;SDS011;4992;51.628;6.664;2022-08-01T09:51:06;0.10;;;0.10;;
9906;SDS011;4992;51.628;6.664;2022-08-01T09:53:42;1.10;;;0.15;;
9906;SDS011;4992;51.628;6.664;2022-08-01T09:56:10;1.08;;;0.20;;
9906;SDS011;4992;51.628;6.664;2022-08-01T09:58:50;5.72;;;2.20;;
9906;SDS011;4992;51.628;6.664;2022-08-01T10:01:25;0.10;;;0.10;;
9906;SDS011;4992;51.628;6.664;2022-08-01T10:04:08;0.10;;;0.10;;
9906;SDS011;4992;51.628;6.664;2022-08-01T10:06:36;0.55;;;0.20;;
9906;SDS011;4992;51.628;6.664;2022-08-01T10:09:02;0.10;;;0.10;;
9906;SDS011;4992;51.628;6.664;2022-08-01T10:11:28;0.55;;;0.20;;
9906;SDS011;4992;51.628;6.664;2022-08-01T10:13:55;0.57;;;0.10;;
9906;SDS011;4992;51.628;6.664;2022-08-01T10:16:24;0.20;;;0.20;;
9906;SDS011;4992;51.628;6.664;2022-08-01T10:18:51;0.70;;;0.10;;
9906;SDS011;4992;51.628;6.664;2022-08-01T10:21:19;0.35;;;0.20;;
9906;SDS011;4992;51.628;6.664;2022-08-01T10:23:45;0.38;;;0.20;;
9906;SDS011;4992;51.628;6.664;2022-08-01T10:26:12;0.55;;;0.30;;
9906;SDS011;4992;51.628;6.664;2022-08-01T10:28:38;0.30;;;0.30;;
9906;SDS011;4992;51.628;6.664;2022-08-01T10:31:06;0.20;;;0.20;;
9906;SDS011;4992;51.628;6.664;2022-08-01T10:33:33;0.32;;;0.20;;
9906;SDS011;4992;51.628;6.664;2022-08-01T10:36:01;0.20;;;0.20;;
9906;SDS011;4992;51.628;6.664;2022-08-01T10:38:27;0.30;;;0.30;;
9906;SDS011;4992;51.628;6.664;2022-08-01T10:40:53;1.35;;;0.20;;
9906;SDS011;4992;51.628;6.664;2022-08-01T10:43:21;0.20;;;0.20;;
9906;SDS011;4992;51.628;6.664;2022-08-01T10:45:46;1.42;;;0.40;;
9906;SDS011;4992;51.628;6.664;2022-08-01T10:48:18;0.22;;;0.20;;
9906;SDS011;4992;51.628;6.664;2022-08-01T10:51:03;0.22;;;0.22;;
9906;SDS011;4992;51.628;6.664;2022-08-01T10:53:30;0.70;;;0.28;;
9906;SDS011;4992;51.628;6.664;2022-08-01T10:56:04;0.65;;;0.20;;
9906;SDS011;4992;51.628;6.664;2022-08-01T10:58:33;0.15;;;0.15;;
9906;SDS011;4992;51.628;6.664;2022-08-01T11:01:16;0.10;;;0.10;;
9906;SDS011;4992;51.628;6.664;2022-08-01T11:04:04;0.10;;;0.10;;
9906;SDS011;4992;51.628;6.664;2022-08-01T11:06:54;0.28;;;0.20;;
9906;SDS011;4992;51.628;6.664;2022-08-01T11:09:30;1.27;;;0.30;;
9906;SDS011;4992;51.628;6.664;2022-08-01T11:12:21;0.38;;;0.20;;
9906;SDS011;4992;51.628;6.664;2022-08-01T11:17:39;0.30;;;0.30;;
9906;SDS011;4992;51.628;6.664;2022-08-01T11:20:25;0.30;;;0.30;;
9906;SDS011;4992;51.628;6.664;2022-08-01T11:38:35;0.32;;;0.30;;
9906;SDS011;4992;51.628;6.664;2022-08-01T11:41:15;0.30;;;0.30;;
9906;SDS011;4992;51.628;6.664;2022-08-01T11:44:05;0.30;;;0.30;;
9906;SDS011;4992;51.628;6.664;2022-08-01T11:49:30;0.73;;;0.45;;
9906;SDS011;4992;51.628;6.664;2022-08-01T11:52:14;0.20;;;0.20;;
9906;SDS011;4992;51.628;6.664;2022-08-01T11:54:50;1.48;;;0.28;;
9906;SDS011;4992;51.628;6.664;2022-08-01T11:57:22;0.30;;;0.30;;
9906;SDS011;4992;51.628;6.664;2022-08-01T11:59:55;1.15;;;0.40;;
9906;SDS011;4992;51.628;6.664;2022-08-01T12:02:30;1.35;;;0.70;;
9906;SDS011;4992;51.628;6.664;2022-08-01T12:07:31;0.63;;;0.30;;
9906;SDS011;4992;51.628;6.664;2022-08-01T12:10:05;0.30;;;0.30;;
9906;SDS011;4992;51.628;6.664;2022-08-01T12:12:33;0.73;;;0.50;;
9906;SDS011;4992;51.628;6.664;2022-08-01T12:15:01;0.28;;;0.28;;
9906;SDS011;4992;51.628;6.664;2022-08-01T12:17:39;0.88;;;0.40;;
9906;SDS011;4992;51.628;6.664;2022-08-01T12:20:07;1.35;;;0.35;;
9906;SDS011;4992;51.628;6.664;2022-08-01T12:22:34;0.30;;;0.30;;
9906;SDS011;4992;51.628;6.664;2022-08-01T12:25:05;0.70;;;0.40;;
9906;SDS011;4992;51.628;6.664;2022-08-01T12:27:35;1.25;;;0.50;;
9906;SDS011;4992;51.628;6.664;2022-08-01T12:30:03;2.00;;;0.52;;
9906;SDS011;4992;51.628;6.664;2022-08-01T12:32:34;1.55;;;0.60;;
9906;SDS011;4992;51.628;6.664;2022-08-01T12:35:05;3.33;;;0.82;;
9906;SDS011;4992;51.628;6.664;2022-08-01T12:37:46;0.82;;;0.40;;
9906;SDS011;4992;51.628;6.664;2022-08-01T12:40:14;1.55;;;0.57;;
9906;SDS011;4992;51.628;6.664;2022-08-01T12:42:48;0.75;;;0.40;;
9906;SDS011;4992;51.628;6.664;2022-08-01T12:45:17;0.93;;;0.60;;
9906;SDS011;4992;51.628;6.664;2022-08-01T12:47:48;0.80;;;0.75;;
9906;SDS011;4992;51.628;6.664;2022-08-01T12:50:17;1.08;;;0.60;;
9906;SDS011;4992;51.628;6.664;2022-08-01T12:52:44;1.52;;;0.70;;
9906;SDS011;4992;51.628;6.664;2022-08-01T12:55:15;2.45;;;0.70;;
9906;SDS011;4992;51.628;6.664;2022-08-01T12:57:46;2.35;;;0.70;;
9906;SDS011;4992;51.628;6.664;2022-08-01T13:02:46;1.00;;;0.75;;
9906;SDS011;4992;51.628;6.664;2022-08-01T13:05:12;3.17;;;1.02;;
9906;SDS011;4992;51.628;6.664;2022-08-01T13:07:40;1.25;;;0.73;;
9906;SDS011;4992;51.628;6.664;2022-08-01T13:12:50;2.15;;;0.82;;
9906;SDS011;4992;51.628;6.664;2022-08-01T13:15:17;1.08;;;0.80;;
9906;SDS011;4992;51.628;6.664;2022-08-01T13:17:48;1.13;;;0.70;;
9906;SDS011;4992;51.628;6.664;2022-08-01T13:20:22;0.95;;;0.73;;
9906;SDS011;4992;51.628;6.664;2022-08-01T13:22:52;1.25;;;0.73;;
9906;SDS011;4992;51.628;6.664;2022-08-01T13:25:18;0.98;;;0.60;;
9906;SDS011;4992;51.628;6.664;2022-08-01T13:27:44;0.95;;;0.80;;
9906;SDS011;4992;51.628;6.664;2022-08-01T13:30:19;2.70;;;0.70;;
9906;SDS011;4992;51.628;6.664;2022-08-01T13:32:59;2.28;;;1.05;;
9906;SDS011;4992;51.628;6.664;2022-08-01T13:35:25;2.97;;;1.58;;
9906;SDS011;4992;51.628;6.664;2022-08-01T13:37:51;4.00;;;0.93;;
9906;SDS011;4992;51.628;6.664;2022-08-01T13:40:23;2.38;;;1.33;;
9906;SDS011;4992;51.628;6.664;2022-08-01T13:42:50;2.40;;;0.77;;
9906;SDS011;4992;51.628;6.664;2022-08-01T13:45:16;2.13;;;0.93;;
9906;SDS011;4992;51.628;6.664;2022-08-01T13:47:42;2.28;;;0.73;;
9906;SDS011;4992;51.628;6.664;2022-08-01T13:50:08;0.95;;;0.70;;
9906;SDS011;4992;51.628;6.664;2022-08-01T13:52:34;1.10;;;0.60;;
9906;SDS011;4992;51.628;6.664;2022-08-01T13:54:59;0.77;;;0.30;;
9906;SDS011;4992;51.628;6.664;2022-08-01T13:57:26;1.75;;;0.70;;
9906;SDS011;4992;51.628;6.664;2022-08-01T13:59:52;1.15;;;0.40;;
9906;SDS011;4992;51.628;6.664;2022-08-01T14:02:18;2.17;;;0.90;;
9906;SDS011;4992;51.628;6.664;2022-08-01T14:04:43;1.60;;;0.57;;
9906;SDS011;4992;51.628;6.664;2022-08-01T14:07:09;1.25;;;0.50;;
9906;SDS011;4992;51.628;6.664;2022-08-01T14:09:35;1.42;;;0.40;;
9906;SDS011;4992;51.628;6.664;2022-08-01T14:12:01;0.60;;;0.50;;
9906;SDS011;4992;51.628;6.664;2022-08-01T14:14:26;1.65;;;0.47;;
9906;SDS011;4992;51.628;6.664;2022-08-01T14:16:52;0.60;;;0.55;;
9906;SDS011;4992;51.628;6.664;2022-08-01T14:19:17;0.47;;;0.25;;
9906;SDS011;4992;51.628;6.664;2022-08-01T14:21:43;2.08;;;0.40;;
9906;SDS011;4992;51.628;6.664;2022-08-01T14:24:08;0.73;;;0.30;;
9906;SDS011;4992;51.628;6.664;2022-08-01T14:26:34;1.48;;;0.40;;
9906;SDS011;4992;51.628;6.664;2022-08-01T14:29:00;0.80;;;0.40;;
9906;SDS011;4992;51.628;6.664;2022-08-01T14:31:26;0.85;;;0.40;;
9906;SDS011;4992;51.628;6.664;2022-08-01T14:33:51;2.30;;;0.40;;
9906;SDS011;4992;51.628;6.664;2022-08-01T14:36:17;1.60;;;0.70;;
9906;SDS011;4992;51.628;6.664;2022-08-01T14:38:42;1.35;;;0.52;;
9906;SDS011;4992;51.628;6.664;2022-08-01T14:41:08;1.92;;;0.55;;
9906;SDS011;4992;51.628;6.664;2022-08-01T14:43:33;1.20;;;0.70;;
9906;SDS011;4992;51.628;6.664;2022-08-01T14:45:59;2.00;;;0.93;;
9906;SDS011;4992;51.628;6.664;2022-08-01T14:48:26;3.05;;;0.70;;
9906;SDS011;4992;51.628;6.664;2022-08-01T14:50:51;1.05;;;0.55;;
9906;SDS011;4992;51.628;6.664;2022-08-01T14:53:17;1.08;;;0.50;;
9906;SDS011;4992;51.628;6.664;2022-08-01T14:55:43;0.77;;;0.43;;
9906;SDS011;4992;51.628;6.664;2022-08-01T14:58:09;1.42;;;0.70;;
9906;SDS011;4992;51.628;6.664;2022-08-01T15:00:34;1.23;;;0.52;;
9906;SDS011;4992;51.628;6.664;2022-08-01T15:03:00;0.65;;;0.40;;
9906;SDS011;4992;51.628;6.664;2022-08-01T15:05:25;1.20;;;0.65;;
9906;SDS011;4992;51.628;6.664;2022-08-01T15:07:51;2.88;;;0.75;;
9906;SDS011;4992;51.628;6.664;2022-08-01T15:10:17;2.60;;;0.68;;
9906;SDS011;4992;51.628;6.664;2022-08-01T15:12:42;1.38;;;0.60;;
9906;SDS011;4992;51.628;6.664;2022-08-01T15:15:08;2.20;;;0.55;;
9906;SDS011;4992;51.628;6.664;2022-08-01T15:17:34;2.05;;;0.55;;
9906;SDS011;4992;51.628;6.664;2022-08-01T15:20:01;0.70;;;0.43;;
9906;SDS011;4992;51.628;6.664;2022-08-01T15:22:29;0.65;;;0.40;;
9906;SDS011;4992;51.628;6.664;2022-08-01T15:24:56;2.35;;;0.50;;
9906;SDS011;4992;51.628;6.664;2022-08-01T15:27:22;0.98;;;0.50;;
9906;SDS011;4992;51.628;6.664;2022-08-01T15:29:49;1.92;;;0.75;;
9906;SDS011;4992;51.628;6.664;2022-08-01T15:32:15;3.20;;;1.25;;
9906;SDS011;4992;51.628;6.664;2022-08-01T15:34:41;2.42;;;0.90;;
9906;SDS011;4992;51.628;6.664;2022-08-01T15:37:07;2.78;;;1.02;;
9906;SDS011;4992;51.628;6.664;2022-08-01T15:39:33;2.17;;;0.85;;
9906;SDS011;4992;51.628;6.664;2022-08-01T15:42:01;1.70;;;0.85;;
9906;SDS011;4992;51.628;6.664;2022-08-01T15:44:29;2.47;;;0.90;;